DAUT

Timimoun Airport

Airport
ICAO code
DAUT
IATA Code
TMX
Summary
ICAO Region
AFI
ICAO Territory
Location

, Adrar

Serving
Timimoun
Elevation
1027 ft
Coordinates
29° 14' 14" N , 0° 16' 34" E
Metar
DAUT 041000Z 07026KT 2000 DRSA NSC 18/01 Q1021

Runways

Designator Length Width Surface Rops
6/24 3000 45 ASP No/No

Airport map

Aerial View

SKYbrary Partners:

Safety knowledge contributed by: